createdAt,value
2023-01-05T00:01:57.722Z,100034.53
2023-01-05T00:04:24.949Z,100025.28
2023-01-05T00:06:52.610Z,100030.75
2023-01-05T00:09:20.141Z,100028.13
2023-01-05T00:12:06.103Z,100021.50
2023-01-05T00:14:53.429Z,100019.72
2023-01-05T00:17:43.369Z,100019.84
2023-01-05T00:20:38.994Z,100023.88
2023-01-05T00:23:09.174Z,100004.16
2023-01-05T00:25:41.393Z,100006.47
2023-01-05T00:28:08.622Z,100013.63
2023-01-05T00:30:43.182Z,100001.97
2023-01-05T00:33:13.985Z,100018.56
2023-01-05T00:35:42.057Z,100023.78
2023-01-05T00:38:10.658Z,100025.22
2023-01-05T00:40:37.861Z,100021.72
2023-01-05T00:43:05.089Z,100020.41
2023-01-05T00:45:32.308Z,100014.44
2023-01-05T00:47:59.529Z,100020.66
2023-01-05T00:50:27.554Z,100012.78
2023-01-05T00:52:54.700Z,100019.78
2023-01-05T00:55:21.794Z,100014.81
2023-01-05T00:57:48.943Z,100015.63
2023-01-05T01:00:19.553Z,100015.63
2023-01-05T01:02:47.912Z,100005.19
2023-01-05T01:05:15.241Z,100013.47
2023-01-05T01:07:42.804Z,100007.69
2023-01-05T01:10:11.498Z,100000.63
2023-01-05T01:12:38.615Z,100011.56
2023-01-05T01:15:11.070Z,100002.97
2023-01-05T01:17:47.178Z,100008.78
2023-01-05T01:20:14.281Z,100009.38
2023-01-05T01:22:41.285Z,100005.34
2023-01-05T01:25:09.107Z,100016.09
2023-01-05T01:27:36.225Z,100014.59
2023-01-05T01:30:03.626Z,100019.09
2023-01-05T01:32:30.661Z,100019.09
2023-01-05T01:34:57.762Z,100008.72
2023-01-05T01:37:24.807Z,100009.78
2023-01-05T01:39:51.855Z,100022.41
2023-01-05T01:42:21.093Z,100012.72
2023-01-05T01:44:59.709Z,100009.41
2023-01-05T01:47:59.114Z,100020.13
2023-01-05T01:50:52.625Z,100012.53
2023-01-05T01:53:29.937Z,100013.72
2023-01-05T01:56:02.554Z,100004.38
2023-01-05T01:58:32.480Z,100006.84
2023-01-05T02:01:03.417Z,100021.38
2023-01-05T02:03:32.190Z,100021.38
2023-01-05T02:05:59.736Z,100015.56
2023-01-05T02:08:31.371Z,100026.78
2023-01-05T02:11:07.555Z,100014.50
2023-01-05T02:14:49.353Z,100014.56
2023-01-05T02:17:41.899Z,100021.19
2023-01-05T02:21:17.163Z,100005.66
2023-01-05T02:24:33.611Z,100011.34
2023-01-05T02:28:15.793Z,100005.81
2023-01-05T02:31:36.509Z,99995.72
2023-01-05T02:34:20.245Z,100004.25
2023-01-05T02:37:28.123Z,99998.47
2023-01-05T02:40:09.512Z,100001.06
2023-01-05T02:42:38.403Z,100001.91
2023-01-05T02:45:08.540Z,99996.56
2023-01-05T02:47:45.250Z,100003.94
2023-01-05T02:50:26.759Z,99984.47
2023-01-05T02:53:28.960Z,99985.72
2023-01-05T02:56:20.676Z,99991.22
2023-01-05T02:59:17.096Z,99992.16
2023-01-05T03:01:59.823Z,99998.47
2023-01-05T03:04:53.640Z,99998.47
2023-01-05T03:07:28.392Z,99999.88
2023-01-05T03:09:57.508Z,99997.75
2023-01-05T03:12:53.958Z,99993.50
2023-01-05T03:15:32.853Z,100003.56
2023-01-05T03:18:14.488Z,99988.03
2023-01-05T03:20:48.349Z,99996.56
2023-01-05T03:23:38.553Z,100012.81
2023-01-05T03:26:28.492Z,100003.50
2023-01-05T03:29:20.882Z,100011.75
2023-01-05T03:32:41.260Z,100007.72
2023-01-05T03:35:38.010Z,100011.16
2023-01-05T03:38:21.947Z,100014.44
2023-01-05T03:40:53.884Z,100010.75
2023-01-05T03:43:22.018Z,100018.03
2023-01-05T03:45:56.786Z,100014.72
2023-01-05T03:48:27.170Z,100007.50
2023-01-05T03:50:55.364Z,100026.88
2023-01-05T03:53:22.415Z,100042.91
2023-01-05T03:55:49.436Z,100042.00
2023-01-05T03:58:16.434Z,100042.50
2023-01-05T04:00:43.447Z,100051.25
2023-01-05T04:03:10.745Z,100052.03
2023-01-05T04:05:37.927Z,100053.44
2023-01-05T04:08:06.147Z,100060.69
2023-01-05T04:10:33.443Z,100063.91
2023-01-05T04:13:00.478Z,100066.88
2023-01-05T04:15:27.589Z,100071.25
2023-01-05T04:17:54.847Z,100061.91
2023-01-05T04:20:24.169Z,100066.78
2023-01-05T04:22:51.187Z,100069.00
2023-01-05T04:25:18.270Z,100077.56
2023-01-05T04:27:45.337Z,100081.94
2023-01-05T04:30:12.652Z,100081.72
2023-01-05T04:32:39.692Z,100081.72
2023-01-05T04:35:10.953Z,100086.00
2023-01-05T04:37:39.677Z,100089.56
2023-01-05T04:40:07.822Z,100104.38
2023-01-05T04:42:34.849Z,100094.53
2023-01-05T04:45:01.881Z,100104.28
2023-01-05T04:47:28.934Z,100098.94
2023-01-05T04:49:55.939Z,100111.41
2023-01-05T04:52:22.948Z,100109.75
2023-01-05T04:54:50.137Z,100110.78
2023-01-05T04:57:17.119Z,100098.09
2023-01-05T04:59:44.497Z,100097.16
2023-01-05T05:02:12.570Z,100104.25
2023-01-05T05:04:39.886Z,100105.59
2023-01-05T05:07:07.191Z,100118.13
2023-01-05T05:09:34.258Z,100117.31
2023-01-05T05:12:01.366Z,100104.75
2023-01-05T05:14:28.407Z,100109.72
2023-01-05T05:16:55.398Z,100115.06
2023-01-05T05:19:22.466Z,100116.00
2023-01-05T05:21:49.524Z,100104.97
2023-01-05T05:24:16.538Z,100121.44
2023-01-05T05:26:43.596Z,100116.84
2023-01-05T05:29:12.949Z,100117.78
2023-01-05T05:31:40.000Z,100130.34
2023-01-05T05:34:07.089Z,100123.22
2023-01-05T05:36:37.243Z,100133.53
2023-01-05T05:39:04.475Z,100123.13
2023-01-05T05:41:31.517Z,100133.19
2023-01-05T05:44:00.886Z,100129.66
2023-01-05T05:46:28.583Z,100111.38
2023-01-05T05:48:59.167Z,100119.06
2023-01-05T05:51:27.474Z,100108.19
2023-01-05T05:53:54.531Z,100111.25
2023-01-05T05:56:21.542Z,100125.44
2023-01-05T05:58:52.581Z,100136.69
2023-01-05T06:01:23.665Z,100154.34
2023-01-05T06:03:51.002Z,100111.72
2023-01-05T06:06:18.173Z,100110.41
2023-01-05T06:08:45.190Z,100110.31
2023-01-05T06:11:12.166Z,100127.94
2023-01-05T06:13:39.461Z,100126.88
2023-01-05T06:16:07.208Z,100132.22
2023-01-05T06:18:34.235Z,100135.19
2023-01-05T06:21:02.059Z,100137.44
2023-01-05T06:23:29.438Z,100140.28
2023-01-05T06:25:56.587Z,100144.91
2023-01-05T06:28:23.647Z,100153.16
2023-01-05T06:30:50.688Z,100159.91
2023-01-05T06:33:17.867Z,100166.06
2023-01-05T06:35:47.822Z,100163.47
2023-01-05T06:38:16.089Z,100158.25
2023-01-05T06:40:45.668Z,100166.78
2023-01-05T06:43:13.173Z,100158.38
2023-01-05T06:45:40.349Z,100165.59
2023-01-05T06:48:09.709Z,100161.66
2023-01-05T06:50:36.749Z,100169.38
2023-01-05T06:53:13.104Z,100174.81
2023-01-05T06:55:40.122Z,100166.78
2023-01-05T06:58:07.163Z,100170.31
2023-01-05T07:00:34.441Z,100172.53
2023-01-05T07:03:01.572Z,100185.00
2023-01-05T07:05:28.900Z,100191.72
2023-01-05T07:07:56.202Z,100189.28
2023-01-05T07:10:23.258Z,100190.00
2023-01-05T07:12:50.302Z,100190.44
2023-01-05T07:15:17.400Z,100192.22
2023-01-05T07:17:44.739Z,100190.06
2023-01-05T07:20:11.866Z,100187.34
2023-01-05T07:22:38.996Z,100189.34
2023-01-05T07:25:06.843Z,100192.72
2023-01-05T07:27:33.930Z,100204.44
2023-01-05T07:30:01.011Z,100207.59
2023-01-05T07:32:30.076Z,100207.25
2023-01-05T07:34:57.107Z,100216.75
2023-01-05T07:37:25.478Z,100214.84
2023-01-05T07:39:53.235Z,100222.66
2023-01-05T07:42:20.530Z,100225.75
2023-01-05T07:44:47.653Z,100237.56
2023-01-05T07:47:14.700Z,100253.09
2023-01-05T07:49:41.725Z,100249.06
2023-01-05T07:52:08.963Z,100250.50
2023-01-05T07:54:35.967Z,100257.09
2023-01-05T07:57:03.052Z,100261.13
2023-01-05T07:59:30.313Z,100255.59
2023-01-05T08:01:58.493Z,100278.41
2023-01-05T08:04:25.666Z,100265.28
2023-01-05T08:06:52.789Z,100261.13
2023-01-05T08:09:38.581Z,100277.00
2023-01-05T08:12:06.029Z,100274.91
2023-01-05T08:14:33.219Z,100281.94
2023-01-05T08:17:00.339Z,100291.22
2023-01-05T08:19:27.485Z,100289.75
2023-01-05T08:21:54.869Z,100303.03
2023-01-05T08:24:21.883Z,100304.44
2023-01-05T08:26:51.306Z,100298.53
2023-01-05T08:29:21.380Z,100298.25
2023-01-05T08:31:48.611Z,100311.69
2023-01-05T08:34:15.662Z,100313.19
2023-01-05T08:36:42.791Z,100304.59
2023-01-05T08:39:13.542Z,100305.38
2023-01-05T08:41:41.161Z,100320.50
2023-01-05T08:44:13.557Z,100309.09
2023-01-05T08:46:41.010Z,100309.78
2023-01-05T08:49:09.988Z,100316.41
2023-01-05T08:51:37.664Z,100316.88
2023-01-05T08:54:05.140Z,100314.44
2023-01-05T08:56:38.359Z,100297.84
2023-01-05T08:59:06.496Z,100328.00
2023-01-05T09:01:33.727Z,100332.09
2023-01-05T09:04:00.787Z,100315.75
2023-01-05T09:06:27.812Z,100333.50
2023-01-05T09:08:55.007Z,100339.44
2023-01-05T09:11:28.085Z,100335.53
2023-01-05T09:13:59.032Z,100343.13
2023-01-05T09:19:18.638Z,100366.38
2023-01-05T09:21:45.904Z,100358.69
2023-01-05T09:24:13.376Z,100384.69
2023-01-05T09:26:42.459Z,100363.84
2023-01-05T09:29:11.575Z,100374.56
2023-01-05T09:31:41.266Z,100379.84
2023-01-05T09:34:11.127Z,100441.22
2023-01-05T09:36:39.089Z,100384.22
2023-01-05T09:39:06.677Z,100386.75
2023-01-05T09:41:43.256Z,100393.31
2023-01-05T09:44:41.464Z,100408.91
2023-01-05T09:47:37.337Z,100403.81
2023-01-05T09:50:17.357Z,100424.13
2023-01-05T09:52:44.687Z,100394.78
2023-01-05T09:55:24.661Z,100404.31
2023-01-05T09:58:14.226Z,100402.25
2023-01-05T10:00:49.255Z,100384.59
2023-01-05T10:04:01.973Z,100388.53
2023-01-05T10:06:15.523Z,100395.25
2023-01-05T10:08:51.639Z,100364.69
2023-01-05T10:12:14.294Z,100374.91
2023-01-05T10:15:19.560Z,100382.94
2023-01-05T10:17:47.662Z,100388.13
2023-01-05T10:20:45.322Z,100407.25
2023-01-05T10:24:02.264Z,100408.25
2023-01-05T10:30:22.053Z,100395.78
2023-01-05T10:33:35.448Z,100408.72
2023-01-05T10:37:09.502Z,100410.69
2023-01-05T10:40:07.289Z,100402.00
2023-01-05T10:43:23.134Z,100415.81
2023-01-05T10:46:19.675Z,100411.44
2023-01-05T10:48:40.291Z,100422.59
2023-01-05T10:51:09.611Z,100422.91
2023-01-05T10:53:44.083Z,100425.19
2023-01-05T10:56:30.603Z,100433.69
2023-01-05T10:59:15.324Z,100441.31
2023-01-05T11:01:49.485Z,100453.53
2023-01-05T11:04:32.003Z,100438.56
2023-01-05T11:07:06.862Z,100454.22
2023-01-05T11:09:41.128Z,100447.91
2023-01-05T11:12:21.186Z,100455.25
2023-01-05T11:14:59.341Z,100463.59
2023-01-05T11:17:29.729Z,100464.44
2023-01-05T11:19:58.373Z,100474.69
2023-01-05T11:22:38.027Z,100470.53
2023-01-05T11:25:33.075Z,100479.41
2023-01-05T11:28:17.793Z,100474.59
2023-01-05T11:31:05.596Z,100490.72
2023-01-05T11:33:39.605Z,100495.94
2023-01-05T11:36:07.478Z,100506.00
2023-01-05T11:38:35.322Z,100494.22
2023-01-05T11:41:02.673Z,100484.19
2023-01-05T11:43:33.009Z,100506.00
2023-01-05T11:46:04.606Z,100506.72
2023-01-05T11:48:35.453Z,100517.81
2023-01-05T11:51:03.499Z,100532.97
2023-01-05T11:53:33.547Z,100527.75
2023-01-05T11:56:16.145Z,100525.47
2023-01-05T11:58:54.465Z,100548.56
2023-01-05T12:02:00.289Z,100531.31
2023-01-05T12:04:54.497Z,100534.13
2023-01-05T12:07:36.510Z,100560.88
2023-01-05T12:10:12.368Z,100552.00
2023-01-05T12:13:45.754Z,100570.69
2023-01-05T12:16:53.076Z,100567.69
2023-01-05T12:20:08.909Z,100578.50
2023-01-05T12:22:53.824Z,100572.25
2023-01-05T12:26:04.401Z,100577.34
2023-01-05T12:37:04.385Z,100600.91
2023-01-05T12:40:10.095Z,100609.59
2023-01-05T12:43:11.016Z,100613.44
2023-01-05T12:46:04.769Z,100620.28
2023-01-05T12:48:38.871Z,100624.03
2023-01-05T12:51:51.050Z,100629.41
2023-01-05T12:54:53.907Z,100639.13
2023-01-05T12:57:48.673Z,100636.13
2023-01-05T13:00:20.113Z,100656.38
2023-01-05T13:03:03.646Z,100657.56
2023-01-05T13:05:56.645Z,100666.75
2023-01-05T13:08:34.863Z,100676.88
2023-01-05T13:11:44.337Z,100687.53
2023-01-05T13:14:25.840Z,100675.63
2023-01-05T13:17:27.338Z,100692.22
2023-01-05T13:20:52.939Z,100685.72
2023-01-05T13:23:57.457Z,100681.22
2023-01-05T13:26:24.510Z,100696.66
2023-01-05T13:28:55.964Z,100711.13
2023-01-05T13:32:03.764Z,100698.47
2023-01-05T13:35:08.244Z,100725.84
2023-01-05T13:38:41.586Z,100735.25
2023-01-05T13:42:01.619Z,100739.38
2023-01-05T13:44:59.322Z,100757.28
2023-01-05T13:51:55.275Z,100771.78
2023-01-05T13:55:01.124Z,100773.16
2023-01-05T13:57:41.017Z,100795.13
2023-01-05T14:00:13.110Z,100785.66
2023-01-05T14:02:45.065Z,100794.69
2023-01-05T14:05:34.460Z,100801.97
2023-01-05T14:08:06.344Z,100808.28
2023-01-05T14:10:34.806Z,100813.53
2023-01-05T14:13:03.420Z,100816.88
2023-01-05T14:15:37.745Z,100815.00
2023-01-05T14:19:18.477Z,100824.78
2023-01-05T14:21:51.414Z,100837.63
2023-01-05T14:24:48.052Z,100849.41
2023-01-05T14:27:24.630Z,100853.72
2023-01-05T14:30:00.365Z,100860.75
2023-01-05T14:32:34.399Z,100870.59
2023-01-05T14:35:39.391Z,100880.72
2023-01-05T14:38:24.856Z,100881.81
2023-01-05T14:40:59.271Z,100886.72
2023-01-05T14:43:54.945Z,100890.06
2023-01-05T14:46:28.678Z,100902.38
2023-01-05T14:49:16.332Z,100904.00
2023-01-05T14:51:58.792Z,100912.22
2023-01-05T14:54:41.505Z,100923.66
2023-01-05T14:57:26.792Z,100927.19
2023-01-05T15:00:05.125Z,100932.72
2023-01-05T15:02:44.941Z,100936.44
2023-01-05T15:05:17.243Z,100947.34
2023-01-05T15:08:19.513Z,100956.72
2023-01-05T15:11:14.813Z,100965.59
2023-01-05T15:14:26.369Z,100971.13
2023-01-05T15:17:36.807Z,100977.53
2023-01-05T15:21:00.418Z,100994.72
2023-01-05T15:24:08.566Z,100998.03
2023-01-05T15:27:00.502Z,101007.38
2023-01-05T15:30:21.866Z,101003.84
2023-01-05T15:33:21.980Z,101008.06
2023-01-05T15:35:57.641Z,101020.66
2023-01-05T15:38:29.174Z,101025.16
2023-01-05T15:41:08.603Z,101041.09
2023-01-05T15:43:40.233Z,101044.63
2023-01-05T15:46:08.143Z,101045.72
2023-01-05T15:48:45.345Z,101042.13
2023-01-05T15:51:32.089Z,101049.91
2023-01-05T15:54:06.540Z,101046.63
2023-01-05T15:56:42.494Z,101051.63
2023-01-05T15:59:48.483Z,101065.22
2023-01-05T16:02:31.108Z,101070.16
2023-01-05T16:05:22.679Z,101076.75
2023-01-05T16:08:01.668Z,101077.31
2023-01-05T16:10:47.863Z,101075.84
2023-01-05T16:13:50.372Z,101078.09
2023-01-05T16:16:52.469Z,101093.75
2023-01-05T16:19:56.397Z,101093.31
2023-01-05T16:23:31.127Z,101091.38
2023-01-05T16:25:59.909Z,101106.25
2023-01-05T16:28:27.234Z,101121.13
2023-01-05T16:30:55.259Z,101123.66
2023-01-05T16:33:35.739Z,101137.84
2023-01-05T16:36:22.517Z,101141.13
2023-01-05T16:38:49.976Z,101130.69
2023-01-05T16:41:26.570Z,101139.69
2023-01-05T16:44:00.946Z,101127.78
2023-01-05T16:46:39.643Z,101136.34
2023-01-05T16:49:57.611Z,101142.53
2023-01-05T16:52:29.007Z,101150.25
2023-01-05T16:55:30.767Z,101143.66
2023-01-05T16:58:00.672Z,101151.38
2023-01-05T17:00:31.549Z,101157.56
2023-01-05T17:03:23.788Z,101151.28
2023-01-05T17:05:58.549Z,101152.81
2023-01-05T17:08:31.683Z,101150.38
2023-01-05T17:11:01.405Z,101156.78
2023-01-05T17:13:39.812Z,101160.16
2023-01-05T17:16:09.938Z,101166.88
2023-01-05T17:18:37.269Z,101172.31
2023-01-05T17:21:06.858Z,101179.63
2023-01-05T17:23:48.466Z,101182.91
2023-01-05T17:26:21.824Z,101184.44
2023-01-05T17:28:49.398Z,101175.63
2023-01-05T17:31:16.464Z,101188.22
2023-01-05T17:33:43.512Z,101196.31
2023-01-05T17:36:10.920Z,101200.13
2023-01-05T17:38:38.128Z,101194.28
2023-01-05T17:41:05.367Z,101197.66
2023-01-05T17:43:32.581Z,101201.09
2023-01-05T17:45:59.591Z,101202.78
2023-01-05T17:48:26.740Z,101200.63
2023-01-05T17:50:54.460Z,101208.53
2023-01-05T17:53:21.671Z,101219.53
2023-01-05T17:55:48.770Z,101216.56
2023-01-05T17:58:15.943Z,101227.53
2023-01-05T18:03:17.036Z,101234.13
2023-01-05T18:05:45.213Z,101235.50
2023-01-05T18:08:12.547Z,101245.53
2023-01-05T18:13:14.663Z,101252.25
2023-01-05T18:15:45.646Z,101256.94
2023-01-05T18:18:13.991Z,101253.59
2023-01-05T18:20:42.533Z,101260.72
2023-01-05T18:23:10.537Z,101268.69
2023-01-05T18:25:39.618Z,101268.63
2023-01-05T18:28:06.793Z,101284.50
2023-01-05T18:30:34.019Z,101276.69
2023-01-05T18:33:01.248Z,101280.25
2023-01-05T18:35:30.942Z,101276.75
2023-01-05T18:38:00.902Z,101288.13
2023-01-05T18:40:29.012Z,101291.09
2023-01-05T18:42:56.180Z,101298.81
2023-01-05T18:45:32.124Z,101295.69
2023-01-05T18:48:05.328Z,101306.72
2023-01-05T18:50:32.366Z,101310.53
2023-01-05T18:53:02.342Z,101307.44
2023-01-05T18:55:29.339Z,101309.94
2023-01-05T18:57:56.351Z,101318.53
2023-01-05T19:00:23.429Z,101312.16
2023-01-05T19:02:50.972Z,101313.91
2023-01-05T19:05:18.262Z,101321.00
2023-01-05T19:07:45.310Z,101319.38
2023-01-05T19:10:12.389Z,101327.03
2023-01-05T19:12:39.615Z,101331.38
2023-01-05T19:15:07.500Z,101328.00
2023-01-05T19:17:34.586Z,101328.00
2023-01-05T19:20:01.713Z,101333.81
2023-01-05T19:22:28.727Z,101336.38
2023-01-05T19:24:56.801Z,101327.28
2023-01-05T19:27:23.884Z,101329.53
2023-01-05T19:29:50.944Z,101339.44
2023-01-05T19:32:17.935Z,101345.28
2023-01-05T19:34:45.008Z,101342.75
2023-01-05T19:37:12.068Z,101354.03
2023-01-05T19:39:39.111Z,101349.63
2023-01-05T19:42:06.167Z,101355.59
2023-01-05T19:44:33.164Z,101342.50
2023-01-05T19:47:00.421Z,101341.72
2023-01-05T19:49:28.623Z,101340.50
2023-01-05T19:51:56.436Z,101336.47
2023-01-05T19:54:25.540Z,101351.50
2023-01-05T19:56:54.658Z,101353.91
2023-01-05T19:59:32.685Z,101347.63
2023-01-05T20:02:02.444Z,101360.72
2023-01-05T20:04:30.661Z,101362.16
2023-01-05T20:07:03.905Z,101366.41
2023-01-05T20:09:31.818Z,101371.78
2023-01-05T20:12:09.145Z,101381.66
2023-01-05T20:14:41.263Z,101376.59
2023-01-05T20:17:11.242Z,101386.94
2023-01-05T20:19:39.543Z,101383.69
2023-01-05T20:22:13.609Z,101383.81
2023-01-05T20:24:41.882Z,101391.84
2023-01-05T20:27:14.759Z,101389.94
2023-01-05T20:29:41.935Z,101393.28
2023-01-05T20:32:29.147Z,101388.66
2023-01-05T20:35:00.219Z,101399.69
2023-01-05T20:37:32.522Z,101398.03
2023-01-05T20:40:02.846Z,101404.31
2023-01-05T20:42:30.619Z,101404.81
2023-01-05T20:44:58.175Z,101404.13
2023-01-05T20:47:25.486Z,101412.66
2023-01-05T20:49:53.444Z,101418.09
2023-01-05T20:52:20.503Z,101415.06
2023-01-05T20:54:49.563Z,101421.03
2023-01-05T20:57:16.611Z,101424.56
2023-01-05T20:59:43.604Z,101425.94
2023-01-05T21:02:23.652Z,101430.16
2023-01-05T21:04:53.179Z,101430.16
2023-01-05T21:07:20.820Z,101431.00
2023-01-05T21:09:49.757Z,101431.00
2023-01-05T21:12:17.302Z,101441.00
2023-01-05T21:14:44.454Z,101438.84
2023-01-05T21:17:11.434Z,101441.00
2023-01-05T21:19:38.500Z,101443.66
2023-01-05T21:22:05.509Z,101446.00
2023-01-05T21:24:32.494Z,101450.41
2023-01-05T21:26:59.497Z,101445.25
2023-01-05T21:29:26.564Z,101449.63
2023-01-05T21:31:56.906Z,101454.34
2023-01-05T21:34:24.345Z,101456.31
2023-01-05T21:36:52.311Z,101458.69
2023-01-05T21:39:24.578Z,101465.44
2023-01-05T21:42:12.013Z,101475.56
2023-01-05T21:44:39.736Z,101475.44
2023-01-05T21:47:07.581Z,101471.03
2023-01-05T21:49:36.210Z,101459.97
2023-01-05T21:52:23.169Z,101470.25
2023-01-05T21:55:08.583Z,101463.56
2023-01-05T21:57:35.693Z,101465.66
2023-01-05T22:00:03.730Z,101459.84
2023-01-05T22:02:30.755Z,101455.72
2023-01-05T22:04:57.808Z,101452.16
2023-01-05T22:07:24.942Z,101463.19
2023-01-05T22:09:51.913Z,101461.00
2023-01-05T22:12:18.997Z,101462.59
2023-01-05T22:14:46.195Z,101470.47
2023-01-05T22:17:13.303Z,101478.03
2023-01-05T22:19:40.373Z,101481.25
2023-01-05T22:22:07.434Z,101480.78
2023-01-05T22:24:34.509Z,101475.69
2023-01-05T22:27:01.541Z,101479.09
2023-01-05T22:29:28.608Z,101478.78
2023-01-05T22:31:55.776Z,101486.25
2023-01-05T22:34:22.762Z,101490.34
2023-01-05T22:36:49.983Z,101490.41
2023-01-05T22:39:17.152Z,101488.66
2023-01-05T22:41:45.451Z,101490.41
2023-01-05T22:44:12.585Z,101494.25
2023-01-05T22:46:39.610Z,101485.53
2023-01-05T22:49:06.754Z,101490.00
2023-01-05T22:51:38.403Z,101492.81
2023-01-05T22:54:05.587Z,101484.91
2023-01-05T22:56:35.007Z,101488.00
2023-01-05T22:59:02.584Z,101486.47
2023-01-05T23:01:39.650Z,101487.72
2023-01-05T23:04:07.528Z,101491.34
2023-01-05T23:06:35.019Z,101483.50
2023-01-05T23:09:06.132Z,101491.53
2023-01-05T23:11:38.270Z,101502.53
2023-01-05T23:14:09.763Z,101499.75
2023-01-05T23:16:37.228Z,101500.53
2023-01-05T23:19:07.672Z,101496.38
2023-01-05T23:21:35.052Z,101500.81
2023-01-05T23:24:02.389Z,101495.91
2023-01-05T23:26:30.392Z,101484.03
2023-01-05T23:28:57.902Z,101486.63
2023-01-05T23:31:25.761Z,101487.03
2023-01-05T23:33:52.947Z,101489.69
2023-01-05T23:36:23.442Z,101497.41
2023-01-05T23:38:50.562Z,101493.19
2023-01-05T23:41:18.918Z,101492.13
2023-01-05T23:43:46.821Z,101494.47
2023-01-05T23:46:23.661Z,101493.47
2023-01-05T23:48:52.317Z,101493.25
2023-01-05T23:51:19.483Z,101487.91
2023-01-05T23:53:53.248Z,101482.59
2023-01-05T23:56:28.815Z,101485.56
2023-01-05T23:59:05.693Z,101489.47
